Terminal Aerodrome Forecast
Issued by NWS Cleveland, OH

Home | Current Version | Previous Version | Graphics & Text | Print | Product List | Glossary On
Versions: 1 2 3 4 5 6 7 8 9 10 11 12 13 14 15 16 17 18 19 20 21 22 23
000
FTUS41 KCLE 040413 AAC
TAFMFD
TAF AMD
KMFD 040413Z 0404/0424 05005KT 4SM -SHRA BR BKN040 OVC080
      TEMPO 0404/0405 2SM TSRA BR SCT006 BKN028CB
     FM041000 18003KT 4SM BR SCT250
      TEMPO 0410/0413 2SM BR
     FM041300 20006KT P6SM SCT250
     FM041800 24006KT P6SM VCTS BKN045CB=

USA.gov is the U.S. government's official web portal to all federal, state and local government web resources and services.